sensor_id;sensor_type;location;lat;lon;timestamp;P1;durP1;ratioP1;P2;durP2;ratioP2
1320;SDS011;653;51.480;11.992;2023-08-06T00:00:25;10.93;;;5.50;;
1320;SDS011;653;51.480;11.992;2023-08-06T00:02:50;8.07;;;6.07;;
1320;SDS011;653;51.480;11.992;2023-08-06T00:05:17;7.20;;;6.50;;
1320;SDS011;653;51.480;11.992;2023-08-06T00:07:50;6.93;;;5.40;;
1320;SDS011;653;51.480;11.992;2023-08-06T00:10:17;7.60;;;5.30;;
1320;SDS011;653;51.480;11.992;2023-08-06T00:12:44;10.93;;;6.50;;
1320;SDS011;653;51.480;11.992;2023-08-06T00:15:10;7.13;;;6.00;;
1320;SDS011;653;51.480;11.992;2023-08-06T00:17:36;6.83;;;5.40;;
1320;SDS011;653;51.480;11.992;2023-08-06T00:20:03;7.10;;;6.00;;
1320;SDS011;653;51.480;11.992;2023-08-06T00:22:32;6.53;;;5.90;;
1320;SDS011;653;51.480;11.992;2023-08-06T00:24:58;10.67;;;5.97;;
1320;SDS011;653;51.480;11.992;2023-08-06T00:27:24;8.47;;;6.63;;
1320;SDS011;653;51.480;11.992;2023-08-06T00:29:49;8.17;;;5.47;;
1320;SDS011;653;51.480;11.992;2023-08-06T00:32:16;5.90;;;5.27;;
1320;SDS011;653;51.480;11.992;2023-08-06T00:34:43;8.00;;;6.10;;
1320;SDS011;653;51.480;11.992;2023-08-06T00:37:10;7.47;;;5.00;;
1320;SDS011;653;51.480;11.992;2023-08-06T00:39:36;6.60;;;5.80;;
1320;SDS011;653;51.480;11.992;2023-08-06T00:42:03;8.50;;;5.80;;
1320;SDS011;653;51.480;11.992;2023-08-06T00:44:30;6.77;;;6.03;;
1320;SDS011;653;51.480;11.992;2023-08-06T00:46:56;5.50;;;5.00;;
1320;SDS011;653;51.480;11.992;2023-08-06T00:49:23;7.93;;;5.10;;
1320;SDS011;653;51.480;11.992;2023-08-06T00:51:50;8.57;;;6.37;;
1320;SDS011;653;51.480;11.992;2023-08-06T00:54:16;6.83;;;5.73;;
1320;SDS011;653;51.480;11.992;2023-08-06T00:56:43;7.80;;;7.00;;
1320;SDS011;653;51.480;11.992;2023-08-06T00:59:09;7.23;;;5.33;;
1320;SDS011;653;51.480;11.992;2023-08-06T01:01:35;9.50;;;6.47;;
1320;SDS011;653;51.480;11.992;2023-08-06T01:04:02;8.40;;;6.57;;
1320;SDS011;653;51.480;11.992;2023-08-06T01:09:15;7.70;;;6.60;;
1320;SDS011;653;51.480;11.992;2023-08-06T01:12:05;11.30;;;6.80;;
1320;SDS011;653;51.480;11.992;2023-08-06T01:14:43;6.10;;;5.50;;
1320;SDS011;653;51.480;11.992;2023-08-06T01:17:31;4.47;;;3.80;;
1320;SDS011;653;51.480;11.992;2023-08-06T01:19:58;3.50;;;3.20;;
1320;SDS011;653;51.480;11.992;2023-08-06T01:22:23;5.80;;;2.57;;
1320;SDS011;653;51.480;11.992;2023-08-06T01:24:50;3.23;;;2.93;;
1320;SDS011;653;51.480;11.992;2023-08-06T01:30:12;3.23;;;2.93;;
1320;SDS011;653;51.480;11.992;2023-08-06T01:32:42;3.30;;;2.37;;
1320;SDS011;653;51.480;11.992;2023-08-06T01:35:09;3.63;;;2.40;;
1320;SDS011;653;51.480;11.992;2023-08-06T01:37:36;4.70;;;2.50;;
1320;SDS011;653;51.480;11.992;2023-08-06T01:40:09;2.53;;;2.33;;
1320;SDS011;653;51.480;11.992;2023-08-06T01:42:38;3.40;;;2.53;;
1320;SDS011;653;51.480;11.992;2023-08-06T01:45:06;2.57;;;2.13;;
1320;SDS011;653;51.480;11.992;2023-08-06T01:47:33;3.00;;;2.60;;
1320;SDS011;653;51.480;11.992;2023-08-06T01:50:00;2.50;;;2.30;;
1320;SDS011;653;51.480;11.992;2023-08-06T01:52:26;3.83;;;2.83;;
1320;SDS011;653;51.480;11.992;2023-08-06T01:54:52;2.60;;;1.60;;
1320;SDS011;653;51.480;11.992;2023-08-06T01:57:19;2.43;;;2.13;;
1320;SDS011;653;51.480;11.992;2023-08-06T01:59:44;2.47;;;2.00;;
1320;SDS011;653;51.480;11.992;2023-08-06T02:02:10;3.10;;;2.20;;
1320;SDS011;653;51.480;11.992;2023-08-06T02:04:40;3.20;;;2.20;;
1320;SDS011;653;51.480;11.992;2023-08-06T02:07:05;2.03;;;1.83;;
1320;SDS011;653;51.480;11.992;2023-08-06T02:09:30;2.80;;;2.13;;
1320;SDS011;653;51.480;11.992;2023-08-06T02:11:57;3.37;;;2.00;;
1320;SDS011;653;51.480;11.992;2023-08-06T02:14:23;2.97;;;2.70;;
1320;SDS011;653;51.480;11.992;2023-08-06T02:16:49;3.90;;;2.33;;
1320;SDS011;653;51.480;11.992;2023-08-06T02:19:16;2.40;;;2.20;;
1320;SDS011;653;51.480;11.992;2023-08-06T02:21:43;4.57;;;2.43;;
1320;SDS011;653;51.480;11.992;2023-08-06T02:24:10;3.87;;;2.50;;
1320;SDS011;653;51.480;11.992;2023-08-06T02:26:37;2.87;;;1.90;;
1320;SDS011;653;51.480;11.992;2023-08-06T02:29:03;3.13;;;2.87;;
1320;SDS011;653;51.480;11.992;2023-08-06T02:31:30;2.47;;;2.27;;
1320;SDS011;653;51.480;11.992;2023-08-06T02:33:57;2.40;;;2.00;;
1320;SDS011;653;51.480;11.992;2023-08-06T02:36:24;5.90;;;2.43;;
1320;SDS011;653;51.480;11.992;2023-08-06T02:38:53;2.47;;;1.90;;
1320;SDS011;653;51.480;11.992;2023-08-06T02:41:18;2.50;;;2.30;;
1320;SDS011;653;51.480;11.992;2023-08-06T02:43:44;2.43;;;2.23;;
1320;SDS011;653;51.480;11.992;2023-08-06T02:46:10;5.00;;;2.17;;
1320;SDS011;653;51.480;11.992;2023-08-06T02:48:37;4.87;;;2.53;;
1320;SDS011;653;51.480;11.992;2023-08-06T02:51:02;3.13;;;2.10;;
1320;SDS011;653;51.480;11.992;2023-08-06T02:53:29;3.80;;;2.70;;
1320;SDS011;653;51.480;11.992;2023-08-06T02:55:55;2.27;;;2.03;;
1320;SDS011;653;51.480;11.992;2023-08-06T02:58:21;2.57;;;2.37;;
1320;SDS011;653;51.480;11.992;2023-08-06T03:01:04;2.90;;;2.10;;
1320;SDS011;653;51.480;11.992;2023-08-06T03:03:32;2.73;;;1.97;;
1320;SDS011;653;51.480;11.992;2023-08-06T03:06:01;2.53;;;2.30;;
1320;SDS011;653;51.480;11.992;2023-08-06T03:08:28;4.30;;;2.60;;
1320;SDS011;653;51.480;11.992;2023-08-06T03:10:54;3.87;;;2.80;;
1320;SDS011;653;51.480;11.992;2023-08-06T03:13:21;2.87;;;2.57;;
1320;SDS011;653;51.480;11.992;2023-08-06T03:15:58;2.90;;;2.63;;
1320;SDS011;653;51.480;11.992;2023-08-06T03:18:26;4.00;;;3.30;;
1320;SDS011;653;51.480;11.992;2023-08-06T03:20:52;4.00;;;3.00;;
1320;SDS011;653;51.480;11.992;2023-08-06T03:23:19;3.83;;;3.53;;
1320;SDS011;653;51.480;11.992;2023-08-06T03:25:44;5.67;;;3.07;;
1320;SDS011;653;51.480;11.992;2023-08-06T03:28:11;3.27;;;2.90;;
1320;SDS011;653;51.480;11.992;2023-08-06T03:30:38;3.83;;;3.03;;
1320;SDS011;653;51.480;11.992;2023-08-06T03:33:04;5.07;;;3.20;;
1320;SDS011;653;51.480;11.992;2023-08-06T03:35:31;3.90;;;3.13;;
1320;SDS011;653;51.480;11.992;2023-08-06T03:37:58;4.23;;;2.70;;
1320;SDS011;653;51.480;11.992;2023-08-06T03:40:24;3.43;;;3.13;;
1320;SDS011;653;51.480;11.992;2023-08-06T03:42:50;4.93;;;3.63;;
1320;SDS011;653;51.480;11.992;2023-08-06T03:45:16;4.90;;;3.77;;
1320;SDS011;653;51.480;11.992;2023-08-06T03:47:41;4.33;;;3.87;;
1320;SDS011;653;51.480;11.992;2023-08-06T03:50:07;4.27;;;3.67;;
1320;SDS011;653;51.480;11.992;2023-08-06T03:52:34;4.17;;;3.40;;
1320;SDS011;653;51.480;11.992;2023-08-06T03:55:01;4.37;;;3.97;;
1320;SDS011;653;51.480;11.992;2023-08-06T03:57:27;4.50;;;3.60;;
1320;SDS011;653;51.480;11.992;2023-08-06T03:59:54;8.30;;;3.70;;
1320;SDS011;653;51.480;11.992;2023-08-06T04:02:20;4.40;;;3.30;;
1320;SDS011;653;51.480;11.992;2023-08-06T04:04:47;4.33;;;3.93;;
1320;SDS011;653;51.480;11.992;2023-08-06T04:07:14;5.13;;;2.80;;
1320;SDS011;653;51.480;11.992;2023-08-06T04:09:57;6.80;;;4.17;;
1320;SDS011;653;51.480;11.992;2023-08-06T04:12:25;5.33;;;3.70;;
1320;SDS011;653;51.480;11.992;2023-08-06T04:14:51;4.90;;;3.70;;
1320;SDS011;653;51.480;11.992;2023-08-06T04:17:18;4.30;;;3.90;;
1320;SDS011;653;51.480;11.992;2023-08-06T04:19:51;5.33;;;4.07;;
1320;SDS011;653;51.480;11.992;2023-08-06T04:22:17;7.60;;;4.43;;
1320;SDS011;653;51.480;11.992;2023-08-06T04:24:43;6.90;;;4.03;;
1320;SDS011;653;51.480;11.992;2023-08-06T04:27:09;5.47;;;3.70;;
1320;SDS011;653;51.480;11.992;2023-08-06T04:29:37;3.73;;;3.27;;
1320;SDS011;653;51.480;11.992;2023-08-06T04:32:05;3.43;;;2.70;;
1320;SDS011;653;51.480;11.992;2023-08-06T04:34:31;4.03;;;2.87;;
1320;SDS011;653;51.480;11.992;2023-08-06T04:36:58;3.47;;;3.17;;
1320;SDS011;653;51.480;11.992;2023-08-06T04:39:25;3.47;;;2.60;;
1320;SDS011;653;51.480;11.992;2023-08-06T04:41:50;4.17;;;2.67;;
1320;SDS011;653;51.480;11.992;2023-08-06T04:44:17;2.60;;;2.40;;
1320;SDS011;653;51.480;11.992;2023-08-06T04:46:43;2.67;;;2.30;;
1320;SDS011;653;51.480;11.992;2023-08-06T04:49:13;10.47;;;2.93;;
1320;SDS011;653;51.480;11.992;2023-08-06T04:51:42;3.53;;;1.90;;
1320;SDS011;653;51.480;11.992;2023-08-06T04:54:09;5.47;;;2.97;;
1320;SDS011;653;51.480;11.992;2023-08-06T04:56:36;3.40;;;2.60;;
1320;SDS011;653;51.480;11.992;2023-08-06T04:59:03;3.00;;;2.60;;
1320;SDS011;653;51.480;11.992;2023-08-06T05:01:29;3.17;;;2.70;;
1320;SDS011;653;51.480;11.992;2023-08-06T05:03:56;4.03;;;2.90;;
1320;SDS011;653;51.480;11.992;2023-08-06T05:06:21;2.87;;;2.53;;
1320;SDS011;653;51.480;11.992;2023-08-06T05:08:48;5.10;;;2.20;;
1320;SDS011;653;51.480;11.992;2023-08-06T05:11:15;3.03;;;2.27;;
1320;SDS011;653;51.480;11.992;2023-08-06T05:13:42;3.50;;;2.60;;
1320;SDS011;653;51.480;11.992;2023-08-06T05:16:07;2.50;;;2.30;;
1320;SDS011;653;51.480;11.992;2023-08-06T05:18:35;2.93;;;2.30;;
1320;SDS011;653;51.480;11.992;2023-08-06T05:21:03;3.20;;;2.23;;
1320;SDS011;653;51.480;11.992;2023-08-06T05:23:28;3.13;;;2.17;;
1320;SDS011;653;51.480;11.992;2023-08-06T05:25:55;4.23;;;2.50;;
1320;SDS011;653;51.480;11.992;2023-08-06T05:28:21;4.27;;;2.57;;
1320;SDS011;653;51.480;11.992;2023-08-06T05:30:48;4.10;;;2.63;;
1320;SDS011;653;51.480;11.992;2023-08-06T05:33:13;4.27;;;2.83;;
1320;SDS011;653;51.480;11.992;2023-08-06T05:35:40;3.60;;;2.80;;
1320;SDS011;653;51.480;11.992;2023-08-06T05:38:08;3.23;;;2.37;;
1320;SDS011;653;51.480;11.992;2023-08-06T05:40:34;3.97;;;3.23;;
1320;SDS011;653;51.480;11.992;2023-08-06T05:43:01;4.13;;;3.00;;
1320;SDS011;653;51.480;11.992;2023-08-06T05:45:28;3.07;;;2.77;;
1320;SDS011;653;51.480;11.992;2023-08-06T05:47:53;4.30;;;3.07;;
1320;SDS011;653;51.480;11.992;2023-08-06T05:50:22;3.30;;;3.00;;
1320;SDS011;653;51.480;11.992;2023-08-06T05:52:47;3.30;;;3.00;;
1320;SDS011;653;51.480;11.992;2023-08-06T05:55:14;5.20;;;3.20;;
1320;SDS011;653;51.480;11.992;2023-08-06T05:57:39;4.40;;;3.33;;
1320;SDS011;653;51.480;11.992;2023-08-06T06:00:05;3.50;;;3.20;;
1320;SDS011;653;51.480;11.992;2023-08-06T06:02:32;3.10;;;2.80;;
1320;SDS011;653;51.480;11.992;2023-08-06T06:04:59;3.57;;;3.27;;
1320;SDS011;653;51.480;11.992;2023-08-06T06:07:25;3.53;;;3.23;;
1320;SDS011;653;51.480;11.992;2023-08-06T06:09:55;3.07;;;2.77;;
1320;SDS011;653;51.480;11.992;2023-08-06T06:12:21;5.77;;;3.30;;
1320;SDS011;653;51.480;11.992;2023-08-06T06:14:48;4.80;;;2.97;;
1320;SDS011;653;51.480;11.992;2023-08-06T06:17:14;6.03;;;3.10;;
1320;SDS011;653;51.480;11.992;2023-08-06T06:19:43;3.47;;;2.90;;
1320;SDS011;653;51.480;11.992;2023-08-06T06:22:11;3.53;;;2.60;;
1320;SDS011;653;51.480;11.992;2023-08-06T06:24:38;3.03;;;2.73;;
1320;SDS011;653;51.480;11.992;2023-08-06T06:27:05;3.40;;;2.70;;
1320;SDS011;653;51.480;11.992;2023-08-06T06:29:32;3.10;;;2.60;;
1320;SDS011;653;51.480;11.992;2023-08-06T06:31:57;2.83;;;2.30;;
1320;SDS011;653;51.480;11.992;2023-08-06T06:34:22;2.97;;;2.60;;
1320;SDS011;653;51.480;11.992;2023-08-06T06:36:48;4.90;;;2.87;;
1320;SDS011;653;51.480;11.992;2023-08-06T06:39:15;2.97;;;2.67;;
1320;SDS011;653;51.480;11.992;2023-08-06T06:41:43;3.77;;;3.00;;
1320;SDS011;653;51.480;11.992;2023-08-06T06:44:10;3.03;;;2.73;;
1320;SDS011;653;51.480;11.992;2023-08-06T06:46:37;3.17;;;2.40;;
1320;SDS011;653;51.480;11.992;2023-08-06T06:49:04;2.80;;;2.50;;
1320;SDS011;653;51.480;11.992;2023-08-06T06:51:30;2.73;;;2.40;;
1320;SDS011;653;51.480;11.992;2023-08-06T06:53:58;3.13;;;2.53;;
1320;SDS011;653;51.480;11.992;2023-08-06T06:56:25;3.33;;;2.50;;
1320;SDS011;653;51.480;11.992;2023-08-06T06:58:50;3.00;;;2.70;;
1320;SDS011;653;51.480;11.992;2023-08-06T07:01:18;3.10;;;2.80;;
1320;SDS011;653;51.480;11.992;2023-08-06T07:03:46;2.30;;;2.10;;
1320;SDS011;653;51.480;11.992;2023-08-06T07:06:13;3.50;;;3.00;;
1320;SDS011;653;51.480;11.992;2023-08-06T07:08:43;3.67;;;2.93;;
1320;SDS011;653;51.480;11.992;2023-08-06T07:11:09;3.00;;;2.50;;
1320;SDS011;653;51.480;11.992;2023-08-06T07:13:37;2.60;;;2.37;;
1320;SDS011;653;51.480;11.992;2023-08-06T07:16:03;2.27;;;2.07;;
1320;SDS011;653;51.480;11.992;2023-08-06T07:18:30;3.23;;;2.87;;
1320;SDS011;653;51.480;11.992;2023-08-06T07:20:56;2.70;;;1.93;;
1320;SDS011;653;51.480;11.992;2023-08-06T07:23:23;3.53;;;2.43;;
1320;SDS011;653;51.480;11.992;2023-08-06T07:25:50;2.90;;;2.60;;
1320;SDS011;653;51.480;11.992;2023-08-06T07:28:19;3.37;;;2.47;;
1320;SDS011;653;51.480;11.992;2023-08-06T07:30:45;2.63;;;2.43;;
1320;SDS011;653;51.480;11.992;2023-08-06T07:33:12;5.50;;;2.37;;
1320;SDS011;653;51.480;11.992;2023-08-06T07:35:39;2.07;;;1.87;;
1320;SDS011;653;51.480;11.992;2023-08-06T07:38:04;2.80;;;2.60;;
1320;SDS011;653;51.480;11.992;2023-08-06T07:40:30;2.40;;;2.20;;
1320;SDS011;653;51.480;11.992;2023-08-06T07:42:56;3.03;;;2.73;;
1320;SDS011;653;51.480;11.992;2023-08-06T07:45:22;3.37;;;2.50;;
1320;SDS011;653;51.480;11.992;2023-08-06T07:47:48;2.73;;;2.30;;
1320;SDS011;653;51.480;11.992;2023-08-06T07:50:15;2.60;;;2.40;;
1320;SDS011;653;51.480;11.992;2023-08-06T07:52:41;2.50;;;2.30;;
1320;SDS011;653;51.480;11.992;2023-08-06T07:55:07;2.27;;;2.07;;
1320;SDS011;653;51.480;11.992;2023-08-06T07:57:34;3.40;;;2.47;;
1320;SDS011;653;51.480;11.992;2023-08-06T08:00:01;2.77;;;2.53;;
1320;SDS011;653;51.480;11.992;2023-08-06T08:02:27;2.50;;;2.30;;
1320;SDS011;653;51.480;11.992;2023-08-06T08:04:54;3.00;;;2.70;;
1320;SDS011;653;51.480;11.992;2023-08-06T08:07:21;2.20;;;2.00;;
1320;SDS011;653;51.480;11.992;2023-08-06T08:09:48;3.23;;;2.50;;
1320;SDS011;653;51.480;11.992;2023-08-06T08:12:15;3.27;;;2.50;;
1320;SDS011;653;51.480;11.992;2023-08-06T08:14:40;2.40;;;2.20;;
1320;SDS011;653;51.480;11.992;2023-08-06T08:17:07;2.80;;;2.40;;
1320;SDS011;653;51.480;11.992;2023-08-06T08:19:34;2.53;;;1.97;;
1320;SDS011;653;51.480;11.992;2023-08-06T08:22:01;5.70;;;2.43;;
1320;SDS011;653;51.480;11.992;2023-08-06T08:24:27;3.10;;;2.80;;
1320;SDS011;653;51.480;11.992;2023-08-06T08:26:56;3.20;;;2.90;;
1320;SDS011;653;51.480;11.992;2023-08-06T08:29:22;3.70;;;2.77;;
1320;SDS011;653;51.480;11.992;2023-08-06T08:31:49;5.80;;;2.90;;
1320;SDS011;653;51.480;11.992;2023-08-06T08:34:16;3.07;;;2.77;;
1320;SDS011;653;51.480;11.992;2023-08-06T08:36:42;3.67;;;2.70;;
1320;SDS011;653;51.480;11.992;2023-08-06T08:39:09;2.27;;;2.07;;
1320;SDS011;653;51.480;11.992;2023-08-06T08:41:36;3.40;;;2.03;;
1320;SDS011;653;51.480;11.992;2023-08-06T08:44:03;3.60;;;2.30;;
1320;SDS011;653;51.480;11.992;2023-08-06T08:46:32;4.30;;;2.80;;
1320;SDS011;653;51.480;11.992;2023-08-06T08:48:59;3.20;;;2.67;;
1320;SDS011;653;51.480;11.992;2023-08-06T08:51:26;4.70;;;3.17;;
1320;SDS011;653;51.480;11.992;2023-08-06T08:53:54;2.90;;;2.30;;
1320;SDS011;653;51.480;11.992;2023-08-06T08:56:23;3.90;;;3.50;;
1320;SDS011;653;51.480;11.992;2023-08-06T08:58:49;2.70;;;2.50;;
1320;SDS011;653;51.480;11.992;2023-08-06T09:01:19;3.53;;;2.60;;
1320;SDS011;653;51.480;11.992;2023-08-06T09:03:46;3.30;;;2.47;;
1320;SDS011;653;51.480;11.992;2023-08-06T09:06:13;3.53;;;2.73;;
1320;SDS011;653;51.480;11.992;2023-08-06T09:08:41;3.37;;;2.80;;
1320;SDS011;653;51.480;11.992;2023-08-06T09:11:25;2.80;;;2.50;;
1320;SDS011;653;51.480;11.992;2023-08-06T09:13:50;2.60;;;2.40;;
1320;SDS011;653;51.480;11.992;2023-08-06T09:16:18;2.80;;;2.40;;
1320;SDS011;653;51.480;11.992;2023-08-06T09:18:43;2.70;;;2.40;;
1320;SDS011;653;51.480;11.992;2023-08-06T09:21:13;3.00;;;2.70;;
1320;SDS011;653;51.480;11.992;2023-08-06T09:23:41;3.70;;;2.80;;
1320;SDS011;653;51.480;11.992;2023-08-06T09:26:10;3.80;;;2.90;;
1320;SDS011;653;51.480;11.992;2023-08-06T09:28:38;4.47;;;3.50;;
1320;SDS011;653;51.480;11.992;2023-08-06T09:31:04;2.67;;;2.40;;
1320;SDS011;653;51.480;11.992;2023-08-06T09:33:29;2.90;;;2.60;;
1320;SDS011;653;51.480;11.992;2023-08-06T09:35:56;3.57;;;2.50;;
1320;SDS011;653;51.480;11.992;2023-08-06T09:38:23;2.60;;;2.40;;
1320;SDS011;653;51.480;11.992;2023-08-06T09:40:51;3.47;;;2.50;;
1320;SDS011;653;51.480;11.992;2023-08-06T09:43:18;5.97;;;2.97;;
1320;SDS011;653;51.480;11.992;2023-08-06T09:45:44;3.03;;;2.73;;
1320;SDS011;653;51.480;11.992;2023-08-06T09:48:10;3.13;;;2.60;;
1320;SDS011;653;51.480;11.992;2023-08-06T09:50:36;2.90;;;2.60;;
1320;SDS011;653;51.480;11.992;2023-08-06T09:53:05;5.10;;;2.37;;
1320;SDS011;653;51.480;11.992;2023-08-06T09:55:33;3.10;;;2.80;;
1320;SDS011;653;51.480;11.992;2023-08-06T09:58:00;2.67;;;2.47;;
1320;SDS011;653;51.480;11.992;2023-08-06T10:00:27;3.13;;;2.23;;
1320;SDS011;653;51.480;11.992;2023-08-06T10:02:59;3.30;;;3.00;;
1320;SDS011;653;51.480;11.992;2023-08-06T10:05:25;2.80;;;2.60;;
1320;SDS011;653;51.480;11.992;2023-08-06T10:07:52;4.60;;;2.67;;
1320;SDS011;653;51.480;11.992;2023-08-06T10:10:19;5.43;;;2.63;;
1320;SDS011;653;51.480;11.992;2023-08-06T10:12:46;2.83;;;2.40;;
1320;SDS011;653;51.480;11.992;2023-08-06T10:15:17;3.30;;;2.70;;
1320;SDS011;653;51.480;11.992;2023-08-06T10:17:47;2.70;;;2.50;;
1320;SDS011;653;51.480;11.992;2023-08-06T10:20:15;3.00;;;2.60;;
1320;SDS011;653;51.480;11.992;2023-08-06T10:22:45;3.43;;;3.13;;
1320;SDS011;653;51.480;11.992;2023-08-06T10:25:15;3.20;;;2.90;;
1320;SDS011;653;51.480;11.992;2023-08-06T10:27:54;4.53;;;2.73;;
1320;SDS011;653;51.480;11.992;2023-08-06T10:30:27;2.70;;;2.50;;
1320;SDS011;653;51.480;11.992;2023-08-06T10:33:03;2.90;;;2.63;;
1320;SDS011;653;51.480;11.992;2023-08-06T10:38:10;2.70;;;2.50;;
1320;SDS011;653;51.480;11.992;2023-08-06T10:41:22;2.97;;;2.77;;
1320;SDS011;653;51.480;11.992;2023-08-06T10:45:54;3.30;;;2.50;;
1320;SDS011;653;51.480;11.992;2023-08-06T10:51:03;4.03;;;2.90;;
1320;SDS011;653;51.480;11.992;2023-08-06T10:53:35;2.83;;;2.63;;
1320;SDS011;653;51.480;11.992;2023-08-06T10:56:01;3.70;;;2.77;;
1320;SDS011;653;51.480;11.992;2023-08-06T10:58:31;4.83;;;2.70;;
1320;SDS011;653;51.480;11.992;2023-08-06T11:00:59;2.63;;;2.40;;
1320;SDS011;653;51.480;11.992;2023-08-06T11:03:27;3.80;;;2.50;;
1320;SDS011;653;51.480;11.992;2023-08-06T11:05:53;3.23;;;2.73;;
1320;SDS011;653;51.480;11.992;2023-08-06T11:08:26;2.70;;;2.50;;
1320;SDS011;653;51.480;11.992;2023-08-06T11:10:52;3.07;;;2.80;;
1320;SDS011;653;51.480;11.992;2023-08-06T11:13:18;2.70;;;2.50;;
1320;SDS011;653;51.480;11.992;2023-08-06T11:15:46;3.17;;;2.97;;
1320;SDS011;653;51.480;11.992;2023-08-06T11:18:13;2.63;;;2.43;;
1320;SDS011;653;51.480;11.992;2023-08-06T11:20:39;3.20;;;2.80;;
1320;SDS011;653;51.480;11.992;2023-08-06T11:23:06;2.70;;;2.50;;
1320;SDS011;653;51.480;11.992;2023-08-06T11:25:54;4.10;;;3.03;;
1320;SDS011;653;51.480;11.992;2023-08-06T11:28:21;3.07;;;2.87;;
1320;SDS011;653;51.480;11.992;2023-08-06T11:30:47;3.13;;;2.93;;
1320;SDS011;653;51.480;11.992;2023-08-06T11:33:14;2.93;;;2.70;;
1320;SDS011;653;51.480;11.992;2023-08-06T11:35:47;2.40;;;2.20;;
1320;SDS011;653;51.480;11.992;2023-08-06T11:38:14;2.60;;;2.40;;
1320;SDS011;653;51.480;11.992;2023-08-06T11:40:41;3.13;;;2.93;;
1320;SDS011;653;51.480;11.992;2023-08-06T11:43:07;3.40;;;2.77;;
1320;SDS011;653;51.480;11.992;2023-08-06T11:45:35;2.77;;;2.57;;
1320;SDS011;653;51.480;11.992;2023-08-06T11:48:02;2.70;;;2.50;;
1320;SDS011;653;51.480;11.992;2023-08-06T11:50:29;2.53;;;2.33;;
1320;SDS011;653;51.480;11.992;2023-08-06T11:52:57;2.73;;;2.40;;
1320;SDS011;653;51.480;11.992;2023-08-06T11:55:25;2.97;;;2.77;;
1320;SDS011;653;51.480;11.992;2023-08-06T11:57:53;3.13;;;2.83;;
1320;SDS011;653;51.480;11.992;2023-08-06T12:00:22;2.83;;;2.60;;
1320;SDS011;653;51.480;11.992;2023-08-06T12:02:58;2.40;;;2.20;;
1320;SDS011;653;51.480;11.992;2023-08-06T12:05:29;2.70;;;2.50;;
1320;SDS011;653;51.480;11.992;2023-08-06T12:07:57;3.43;;;3.13;;
1320;SDS011;653;51.480;11.992;2023-08-06T12:10:25;2.90;;;2.57;;
1320;SDS011;653;51.480;11.992;2023-08-06T12:12:56;2.63;;;2.00;;
1320;SDS011;653;51.480;11.992;2023-08-06T12:15:22;2.40;;;2.20;;
1320;SDS011;653;51.480;11.992;2023-08-06T12:17:50;2.60;;;2.40;;
1320;SDS011;653;51.480;11.992;2023-08-06T12:20:16;2.73;;;2.53;;
1320;SDS011;653;51.480;11.992;2023-08-06T12:22:43;2.63;;;2.40;;
1320;SDS011;653;51.480;11.992;2023-08-06T12:25:10;4.67;;;3.80;;
1320;SDS011;653;51.480;11.992;2023-08-06T12:27:42;3.60;;;3.20;;
1320;SDS011;653;51.480;11.992;2023-08-06T12:30:10;3.67;;;3.37;;
1320;SDS011;653;51.480;11.992;2023-08-06T12:32:36;3.60;;;2.77;;
1320;SDS011;653;51.480;11.992;2023-08-06T12:35:01;3.27;;;2.70;;
1320;SDS011;653;51.480;11.992;2023-08-06T12:37:29;2.70;;;2.50;;
1320;SDS011;653;51.480;11.992;2023-08-06T12:39:56;2.53;;;2.33;;
1320;SDS011;653;51.480;11.992;2023-08-06T12:42:23;2.70;;;2.50;;
1320;SDS011;653;51.480;11.992;2023-08-06T12:44:49;4.87;;;4.37;;
1320;SDS011;653;51.480;11.992;2023-08-06T12:47:18;2.73;;;2.53;;
1320;SDS011;653;51.480;11.992;2023-08-06T12:49:45;3.77;;;3.47;;
1320;SDS011;653;51.480;11.992;2023-08-06T12:52:12;3.00;;;2.70;;
1320;SDS011;653;51.480;11.992;2023-08-06T12:54:40;3.60;;;3.30;;
1320;SDS011;653;51.480;11.992;2023-08-06T12:57:07;3.00;;;2.80;;
1320;SDS011;653;51.480;11.992;2023-08-06T12:59:34;3.00;;;2.80;;
1320;SDS011;653;51.480;11.992;2023-08-06T13:02:03;2.63;;;2.42;;
1320;SDS011;653;51.480;11.992;2023-08-06T13:04:29;2.75;;;2.55;;
1320;SDS011;653;51.480;11.992;2023-08-06T13:06:56;3.50;;;3.20;;
1320;SDS011;653;51.480;11.992;2023-08-06T13:09:23;3.05;;;2.85;;
1320;SDS011;653;51.480;11.992;2023-08-06T13:11:51;3.33;;;3.13;;
1320;SDS011;653;51.480;11.992;2023-08-06T13:14:18;2.50;;;2.40;;
1320;SDS011;653;51.480;11.992;2023-08-06T13:16:46;3.25;;;3.00;;
1320;SDS011;653;51.480;11.992;2023-08-06T13:19:12;3.33;;;3.13;;
1320;SDS011;653;51.480;11.992;2023-08-06T13:24:05;2.90;;;2.70;;
1320;SDS011;653;51.480;11.992;2023-08-06T13:26:32;3.25;;;3.05;;
1320;SDS011;653;51.480;11.992;2023-08-06T13:28:59;2.63;;;2.43;;
1320;SDS011;653;51.480;11.992;2023-08-06T13:31:26;3.23;;;3.03;;
1320;SDS011;653;51.480;11.992;2023-08-06T13:33:56;2.73;;;2.53;;
1320;SDS011;653;51.480;11.992;2023-08-06T13:36:24;2.70;;;2.50;;
1320;SDS011;653;51.480;11.992;2023-08-06T13:38:55;3.47;;;3.17;;
1320;SDS011;653;51.480;11.992;2023-08-06T13:41:22;3.00;;;2.80;;
1320;SDS011;653;51.480;11.992;2023-08-06T13:43:49;3.30;;;3.10;;
1320;SDS011;653;51.480;11.992;2023-08-06T13:46:17;3.38;;;3.08;;
1320;SDS011;653;51.480;11.992;2023-08-06T13:48:44;3.35;;;3.15;;
1320;SDS011;653;51.480;11.992;2023-08-06T13:51:11;2.95;;;2.70;;
1320;SDS011;653;51.480;11.992;2023-08-06T13:53:37;2.88;;;2.67;;
1320;SDS011;653;51.480;11.992;2023-08-06T13:56:08;3.05;;;2.85;;
1320;SDS011;653;51.480;11.992;2023-08-06T13:58:38;3.67;;;3.20;;
1320;SDS011;653;51.480;11.992;2023-08-06T14:01:05;3.95;;;2.85;;
1320;SDS011;653;51.480;11.992;2023-08-06T14:03:33;2.80;;;2.60;;
1320;SDS011;653;51.480;11.992;2023-08-06T14:05:59;2.60;;;2.50;;
1320;SDS011;653;51.480;11.992;2023-08-06T14:08:27;2.90;;;2.70;;
1320;SDS011;653;51.480;11.992;2023-08-06T14:10:54;2.67;;;2.53;;
1320;SDS011;653;51.480;11.992;2023-08-06T14:13:21;2.67;;;2.47;;
1320;SDS011;653;51.480;11.992;2023-08-06T14:15:48;6.55;;;2.95;;
1320;SDS011;653;51.480;11.992;2023-08-06T14:18:14;3.40;;;3.10;;
1320;SDS011;653;51.480;11.992;2023-08-06T14:20:41;2.92;;;2.72;;
1320;SDS011;653;51.480;11.992;2023-08-06T14:23:08;3.30;;;3.10;;
1320;SDS011;653;51.480;11.992;2023-08-06T14:25:34;10.32;;;3.42;;
1320;SDS011;653;51.480;11.992;2023-08-06T14:28:01;3.53;;;3.28;;
1320;SDS011;653;51.480;11.992;2023-08-06T14:30:28;2.92;;;2.72;;
1320;SDS011;653;51.480;11.992;2023-08-06T14:32:54;4.78;;;3.20;;
1320;SDS011;653;51.480;11.992;2023-08-06T14:35:21;2.97;;;2.72;;
1320;SDS011;653;51.480;11.992;2023-08-06T14:37:47;2.85;;;2.70;;
1320;SDS011;653;51.480;11.992;2023-08-06T14:40:12;2.75;;;2.55;;
1320;SDS011;653;51.480;11.992;2023-08-06T14:42:38;2.92;;;2.72;;
1320;SDS011;653;51.480;11.992;2023-08-06T14:45:05;2.85;;;2.65;;
1320;SDS011;653;51.480;11.992;2023-08-06T14:47:32;2.60;;;2.40;;
1320;SDS011;653;51.480;11.992;2023-08-06T14:50:00;3.22;;;2.92;;
1320;SDS011;653;51.480;11.992;2023-08-06T14:52:27;3.20;;;3.00;;
1320;SDS011;653;51.480;11.992;2023-08-06T14:54:52;2.50;;;2.30;;
1320;SDS011;653;51.480;11.992;2023-08-06T14:57:20;2.80;;;2.60;;
1320;SDS011;653;51.480;11.992;2023-08-06T14:59:48;2.80;;;2.60;;
1320;SDS011;653;51.480;11.992;2023-08-06T15:02:15;3.25;;;3.03;;
1320;SDS011;653;51.480;11.992;2023-08-06T15:04:41;3.17;;;2.97;;
1320;SDS011;653;51.480;11.992;2023-08-06T15:07:06;2.58;;;2.47;;
1320;SDS011;653;51.480;11.992;2023-08-06T15:09:35;3.08;;;2.88;;
1320;SDS011;653;51.480;11.992;2023-08-06T15:12:02;4.20;;;3.73;;
1320;SDS011;653;51.480;11.992;2023-08-06T15:14:29;4.50;;;4.07;;
1320;SDS011;653;51.480;11.992;2023-08-06T15:16:55;4.60;;;4.20;;
1320;SDS011;653;51.480;11.992;2023-08-06T15:19:23;6.10;;;5.60;;
1320;SDS011;653;51.480;11.992;2023-08-06T15:21:50;5.30;;;4.80;;
1320;SDS011;653;51.480;11.992;2023-08-06T15:24:17;4.97;;;4.57;;
1320;SDS011;653;51.480;11.992;2023-08-06T15:26:43;6.60;;;4.50;;
1320;SDS011;653;51.480;11.992;2023-08-06T15:29:10;4.80;;;4.50;;
1320;SDS011;653;51.480;11.992;2023-08-06T15:31:39;5.30;;;4.30;;